Time;durP1;ratioP1;P1;durP2;ratioP2;P2;SDS_P1;SDS_P2;PMS_P1;PMS_P2;Temp;Humidity;BMP_temperature;BMP_pressure;BME280_temperature;BME280_humidity;BME280_pressure;Samples;Min_cycle;Max_cycle;Signal;HPM_P1;HPM_P2
2022/03/27 00:00:26;;;;;;;31.08;24.38;;;;;;;;;;4953879;28;20094;-84
2022/03/27 00:02:52;;;;;;;30.00;24.10;;;;;;;;;;4935936;28;20486;-84
2022/03/27 00:05:18;;;;;;;33.08;24.30;;;;;;;;;;4969408;28;20098;-84
2022/03/27 00:07:43;;;;;;;27.88;22.85;;;;;;;;;;4959306;28;20046;-84
2022/03/27 00:10:10;;;;;;;31.88;23.83;;;;;;;;;;4957682;28;20512;-84
2022/03/27 00:12:36;;;;;;;33.53;25.98;;;;;;;;;;4949516;28;20534;-83
2022/03/27 00:15:03;;;;;;;30.88;23.13;;;;;;;;;;4933084;28;20114;-84
2022/03/27 00:17:33;;;;;;;31.60;23.98;;;;;;;;;;4961340;28;20043;-83
2022/03/27 00:20:03;;;;;;;32.65;24.67;;;;;;;;;;4934624;28;20047;-84
2022/03/27 00:22:29;;;;;;;32.58;24.48;;;;;;;;;;4948282;28;20043;-83
2022/03/27 00:24:56;;;;;;;30.35;23.15;;;;;;;;;;4934660;28;20050;-85
2022/03/27 00:27:22;;;;;;;32.20;22.83;;;;;;;;;;4954869;28;20444;-84
2022/03/27 00:29:47;;;;;;;32.35;24.90;;;;;;;;;;4933620;28;20043;-84
2022/03/27 00:32:13;;;;;;;34.97;25.90;;;;;;;;;;4941938;28;20050;-84
2022/03/27 00:34:39;;;;;;;36.75;27.23;;;;;;;;;;4958135;28;20039;-83
2022/03/27 00:37:05;;;;;;;32.40;25.05;;;;;;;;;;4944745;28;20074;-84
2022/03/27 00:39:30;;;;;;;33.83;23.70;;;;;;;;;;4949500;28;20032;-83
2022/03/27 00:41:56;;;;;;;27.23;22.27;;;;;;;;;;4934608;28;20090;-84
2022/03/27 00:44:22;;;;;;;29.65;22.73;;;;;;;;;;4936801;28;20452;-83
2022/03/27 00:46:47;;;;;;;40.60;25.95;;;;;;;;;;4934363;28;20707;-84
2022/03/27 00:49:13;;;;;;;35.30;25.55;;;;;;;;;;4947115;28;20070;-84
2022/03/27 00:51:39;;;;;;;33.20;24.73;;;;;;;;;;4936494;28;20047;-84
2022/03/27 00:54:05;;;;;;;36.45;24.20;;;;;;;;;;4925583;28;20139;-84
2022/03/27 00:56:31;;;;;;;31.88;24.80;;;;;;;;;;4930014;28;20040;-84
2022/03/27 00:58:56;;;;;;;33.75;24.75;;;;;;;;;;4959513;28;20058;-83
2022/03/27 01:01:24;;;;;;;30.75;23.20;;;;;;;;;;4938605;28;20112;-84
2022/03/27 01:03:54;;;;;;;31.60;24.10;;;;;;;;;;4944686;28;20113;-84
2022/03/27 01:06:29;;;;;;;29.73;22.83;;;;;;;;;;4940691;28;20066;-84
2022/03/27 01:11:40;;;;;;;27.63;22.15;;;;;;;;;;4965671;28;20457;-83
2022/03/27 01:14:05;;;;;;;28.85;21.10;;;;;;;;;;4942456;28;20425;-83
2022/03/27 01:16:33;;;;;;;29.35;22.38;;;;;;;;;;4932102;28;20039;-84
2022/03/27 01:19:00;;;;;;;32.17;22.45;;;;;;;;;;4955466;28;20079;-84
2022/03/27 01:21:26;;;;;;;31.58;23.63;;;;;;;;;;4944928;28;20034;-84
2022/03/27 01:23:54;;;;;;;28.30;21.77;;;;;;;;;;4934271;28;20049;-83
2022/03/27 01:26:20;;;;;;;32.22;23.13;;;;;;;;;;4936782;28;20035;-84
2022/03/27 01:28:46;;;;;;;31.73;23.75;;;;;;;;;;4942521;28;20039;-84
2022/03/27 01:31:12;;;;;;;33.05;25.35;;;;;;;;;;4961646;28;20070;-84
2022/03/27 01:33:38;;;;;;;36.28;25.77;;;;;;;;;;4951561;28;20054;-84
2022/03/27 01:36:04;;;;;;;37.50;27.25;;;;;;;;;;4955334;28;20331;-83
2022/03/27 01:38:30;;;;;;;45.60;31.95;;;;;;;;;;4932258;28;20039;-84
2022/03/27 01:40:55;;;;;;;46.67;31.73;;;;;;;;;;4943570;28;20046;-84
2022/03/27 01:43:21;;;;;;;41.80;30.65;;;;;;;;;;4946864;28;20509;-85
2022/03/27 01:45:47;;;;;;;45.65;32.50;;;;;;;;;;4967254;28;20109;-83
2022/03/27 01:48:12;;;;;;;48.45;33.90;;;;;;;;;;4959491;28;20093;-83
2022/03/27 01:50:38;;;;;;;43.38;33.55;;;;;;;;;;4983271;28;20073;-84
2022/03/27 01:53:04;;;;;;;45.92;33.88;;;;;;;;;;4950687;28;20050;-83
2022/03/27 01:55:29;;;;;;;44.03;33.10;;;;;;;;;;4967384;28;20555;-83
2022/03/27 01:57:55;;;;;;;43.75;33.53;;;;;;;;;;4959797;28;20047;-84
2022/03/27 02:00:21;;;;;;;44.15;32.83;;;;;;;;;;4950813;28;20134;-83
2022/03/27 02:02:46;;;;;;;39.00;30.35;;;;;;;;;;4966997;28;20109;-83
2022/03/27 02:05:13;;;;;;;40.45;30.30;;;;;;;;;;4943046;28;20035;-84
2022/03/27 02:07:44;;;;;;;41.42;30.83;;;;;;;;;;4952145;28;20054;-83
2022/03/27 02:10:10;;;;;;;44.92;32.28;;;;;;;;;;4967297;28;20041;-84
2022/03/27 02:12:36;;;;;;;50.88;35.65;;;;;;;;;;4950300;28;20039;-85
2022/03/27 02:15:07;;;;;;;48.95;35.22;;;;;;;;;;4955671;28;20583;-84
2022/03/27 02:17:39;;;;;;;42.13;32.65;;;;;;;;;;4966290;28;20519;-84
2022/03/27 02:20:08;;;;;;;49.00;33.47;;;;;;;;;;4965121;28;20050;-84
2022/03/27 02:22:34;;;;;;;52.08;33.67;;;;;;;;;;4949854;28;20035;-84
2022/03/27 02:25:00;;;;;;;44.63;31.58;;;;;;;;;;4947511;28;20043;-84
2022/03/27 02:27:26;;;;;;;46.40;32.97;;;;;;;;;;4934529;28;20122;-84
2022/03/27 02:29:51;;;;;;;43.35;33.13;;;;;;;;;;4938088;28;20158;-84
2022/03/27 02:32:17;;;;;;;45.05;31.55;;;;;;;;;;4947362;28;20106;-84
2022/03/27 02:34:43;;;;;;;43.28;30.23;;;;;;;;;;4945798;28;20401;-83
2022/03/27 02:37:09;;;;;;;41.00;29.15;;;;;;;;;;4943861;28;20123;-83
2022/03/27 02:39:34;;;;;;;38.45;27.45;;;;;;;;;;4946994;28;20043;-83
2022/03/27 02:42:00;;;;;;;37.67;27.73;;;;;;;;;;4949772;28;20050;-82
2022/03/27 02:44:26;;;;;;;35.92;26.77;;;;;;;;;;4952830;28;20099;-82
2022/03/27 02:46:51;;;;;;;36.85;27.52;;;;;;;;;;4960874;28;20095;-83
2022/03/27 02:49:17;;;;;;;38.40;27.63;;;;;;;;;;4957602;28;20038;-82
2022/03/27 02:51:45;;;;;;;39.78;29.05;;;;;;;;;;4946032;28;20043;-83
2022/03/27 02:54:12;;;;;;;39.83;27.98;;;;;;;;;;4947649;28;20251;-83
2022/03/27 02:56:38;;;;;;;36.55;26.85;;;;;;;;;;4945487;28;20047;-83
2022/03/27 02:59:04;;;;;;;35.53;26.90;;;;;;;;;;4947063;28;20058;-83
2022/03/27 03:01:31;;;;;;;33.50;26.27;;;;;;;;;;4950341;28;20102;-84
2022/03/27 03:03:56;;;;;;;37.13;26.85;;;;;;;;;;4935902;28;20568;-83
2022/03/27 03:06:24;;;;;;;38.80;26.50;;;;;;;;;;4934931;28;20358;-83
2022/03/27 03:08:50;;;;;;;32.05;25.92;;;;;;;;;;4942666;28;20428;-83
2022/03/27 03:11:16;;;;;;;34.17;26.05;;;;;;;;;;4956254;28;20066;-83
2022/03/27 03:13:44;;;;;;;35.40;25.50;;;;;;;;;;4956300;28;20508;-83
2022/03/27 03:16:10;;;;;;;37.83;26.83;;;;;;;;;;4959788;28;20134;-83
2022/03/27 03:18:36;;;;;;;34.47;25.88;;;;;;;;;;4943902;28;20030;-83
2022/03/27 03:21:02;;;;;;;33.03;25.05;;;;;;;;;;4948336;28;20043;-83
2022/03/27 03:23:28;;;;;;;34.30;24.05;;;;;;;;;;4981406;28;20489;-83
2022/03/27 03:25:55;;;;;;;34.13;25.77;;;;;;;;;;4977707;28;20047;-82
2022/03/27 03:28:21;;;;;;;32.67;24.42;;;;;;;;;;4956414;28;20480;-83
2022/03/27 03:30:46;;;;;;;32.85;24.70;;;;;;;;;;4953033;28;20047;-83
2022/03/27 03:33:12;;;;;;;36.33;25.05;;;;;;;;;;4968551;28;20049;-83
2022/03/27 03:35:39;;;;;;;34.95;24.83;;;;;;;;;;4966676;28;20070;-83
2022/03/27 03:38:05;;;;;;;34.90;24.33;;;;;;;;;;4948425;28;20057;-83
2022/03/27 03:40:31;;;;;;;30.85;23.42;;;;;;;;;;4940586;28;20035;-83
2022/03/27 03:42:57;;;;;;;32.75;24.15;;;;;;;;;;4958022;28;20046;-84
2022/03/27 03:45:23;;;;;;;30.98;23.77;;;;;;;;;;4952963;28;20094;-83
2022/03/27 03:47:49;;;;;;;35.47;25.17;;;;;;;;;;4940734;28;20077;-83
2022/03/27 03:50:15;;;;;;;29.70;24.27;;;;;;;;;;4951637;28;20039;-83
2022/03/27 03:52:41;;;;;;;30.20;23.50;;;;;;;;;;4936383;28;20489;-83
2022/03/27 03:55:07;;;;;;;33.22;23.85;;;;;;;;;;4930274;29;20050;-83
2022/03/27 03:57:33;;;;;;;33.97;24.92;;;;;;;;;;4944702;28;20081;-83
2022/03/27 03:59:59;;;;;;;32.55;24.65;;;;;;;;;;4945958;28;20360;-83
2022/03/27 04:02:25;;;;;;;30.17;23.25;;;;;;;;;;4932027;28;20039;-83
2022/03/27 04:04:50;;;;;;;32.78;24.98;;;;;;;;;;4962671;28;20493;-83
2022/03/27 04:07:16;;;;;;;34.05;25.10;;;;;;;;;;4951641;28;20055;-83
2022/03/27 04:09:42;;;;;;;32.97;24.27;;;;;;;;;;4948824;28;20486;-83
2022/03/27 04:12:08;;;;;;;32.42;24.20;;;;;;;;;;4933154;28;20436;-83
2022/03/27 04:14:36;;;;;;;34.30;24.85;;;;;;;;;;4943692;28;20093;-83
2022/03/27 04:17:02;;;;;;;37.35;25.48;;;;;;;;;;4929848;28;20061;-83
2022/03/27 04:19:28;;;;;;;37.83;25.85;;;;;;;;;;4930949;29;20122;-83
2022/03/27 04:21:53;;;;;;;64.78;30.40;;;;;;;;;;4928524;28;20043;-83
2022/03/27 04:24:19;;;;;;;40.67;27.92;;;;;;;;;;4949811;28;20043;-83
2022/03/27 04:26:45;;;;;;;43.63;30.25;;;;;;;;;;4953063;28;20090;-83
2022/03/27 04:29:11;;;;;;;42.60;29.85;;;;;;;;;;4935911;28;20130;-83
2022/03/27 04:31:38;;;;;;;41.95;27.88;;;;;;;;;;4943856;28;20087;-83
2022/03/27 04:34:04;;;;;;;47.75;29.52;;;;;;;;;;4953616;28;20039;-83
2022/03/27 04:36:30;;;;;;;55.35;28.38;;;;;;;;;;4957856;28;20109;-83
2022/03/27 04:38:55;;;;;;;65.70;31.58;;;;;;;;;;4959596;28;20044;-82
2022/03/27 04:41:21;;;;;;;63.42;27.33;;;;;;;;;;4944960;28;20419;-83
2022/03/27 04:43:48;;;;;;;65.65;28.05;;;;;;;;;;4970397;28;20086;-83
2022/03/27 04:46:15;;;;;;;48.75;28.65;;;;;;;;;;4972458;28;20042;-82
2022/03/27 04:48:40;;;;;;;56.08;28.95;;;;;;;;;;4947409;28;20043;-83
2022/03/27 04:51:06;;;;;;;48.35;30.45;;;;;;;;;;4946736;28;20118;-83
2022/03/27 04:53:32;;;;;;;53.45;31.60;;;;;;;;;;4955167;28;20110;-82
2022/03/27 04:55:57;;;;;;;53.28;29.67;;;;;;;;;;4948156;28;20051;-83
2022/03/27 04:58:24;;;;;;;39.95;27.38;;;;;;;;;;4945451;28;20039;-83
2022/03/27 05:00:49;;;;;;;45.17;26.40;;;;;;;;;;4945236;28;20467;-83
2022/03/27 05:03:15;;;;;;;52.03;24.17;;;;;;;;;;4934607;28;20036;-83
2022/03/27 05:05:41;;;;;;;45.15;28.65;;;;;;;;;;4964767;28;20066;-82
2022/03/27 05:08:07;;;;;;;41.33;27.52;;;;;;;;;;4944456;28;20102;-82
2022/03/27 05:10:33;;;;;;;42.55;25.65;;;;;;;;;;4930798;28;20044;-82
2022/03/27 05:13:00;;;;;;;146.68;33.08;;;;;;;;;;4941286;28;20172;-82
2022/03/27 05:15:26;;;;;;;65.75;28.58;;;;;;;;;;4948195;28;20109;-82
2022/03/27 05:17:58;;;;;;;85.45;27.67;;;;;;;;;;4960484;28;20039;-82
2022/03/27 05:20:25;;;;;;;192.80;33.50;;;;;;;;;;4939137;28;20043;-83
2022/03/27 05:22:50;;;;;;;93.32;31.58;;;;;;;;;;4948879;28;20046;-82
2022/03/27 05:25:17;;;;;;;60.75;30.70;;;;;;;;;;4931447;28;20058;-82
2022/03/27 05:27:48;;;;;;;50.00;31.17;;;;;;;;;;4956047;28;20039;-84
2022/03/27 05:30:19;;;;;;;53.70;32.42;;;;;;;;;;4934442;28;20063;-83
2022/03/27 05:32:45;;;;;;;63.72;34.28;;;;;;;;;;4958250;28;20039;-83
2022/03/27 05:35:12;;;;;;;66.07;32.25;;;;;;;;;;4939273;28;20043;-82
2022/03/27 05:37:39;;;;;;;106.53;35.28;;;;;;;;;;4943205;28;20091;-82
2022/03/27 05:40:06;;;;;;;125.60;36.95;;;;;;;;;;4954501;28;20071;-82
2022/03/27 05:42:32;;;;;;;96.20;35.80;;;;;;;;;;4967737;28;20034;-83
2022/03/27 05:44:59;;;;;;;228.82;90.72;;;;;;;;;;4965228;28;20043;-83
2022/03/27 05:47:25;;;;;;;102.35;51.90;;;;;;;;;;4952226;28;20039;-83
2022/03/27 05:49:50;;;;;;;63.13;35.20;;;;;;;;;;4966881;28;20093;-83
2022/03/27 05:52:16;;;;;;;150.80;44.58;;;;;;;;;;4954142;28;20050;-83
2022/03/27 05:54:43;;;;;;;58.03;31.52;;;;;;;;;;4963401;28;20061;-84
2022/03/27 05:57:08;;;;;;;65.25;35.35;;;;;;;;;;4974683;28;20460;-84
2022/03/27 05:59:34;;;;;;;59.60;31.33;;;;;;;;;;4950442;28;20043;-84
2022/03/27 06:02:00;;;;;;;53.50;30.92;;;;;;;;;;4947991;28;20043;-84
2022/03/27 06:04:26;;;;;;;55.13;30.98;;;;;;;;;;4963122;28;20039;-84
2022/03/27 06:06:52;;;;;;;52.78;31.10;;;;;;;;;;4967315;28;20042;-84
2022/03/27 06:09:17;;;;;;;153.30;33.70;;;;;;;;;;4967273;28;20051;-83
2022/03/27 06:11:43;;;;;;;279.15;35.45;;;;;;;;;;4953452;28;20051;-84
2022/03/27 06:14:09;;;;;;;194.90;32.63;;;;;;;;;;4971880;28;20043;-84
2022/03/27 06:16:35;;;;;;;164.95;32.58;;;;;;;;;;4948524;28;20039;-84
2022/03/27 06:19:00;;;;;;;135.43;42.53;;;;;;;;;;4946451;28;20067;-84
2022/03/27 06:21:26;;;;;;;78.05;38.85;;;;;;;;;;4982060;28;20038;-84
2022/03/27 06:23:52;;;;;;;64.80;35.00;;;;;;;;;;4952300;28;20316;-84
2022/03/27 06:26:17;;;;;;;88.47;35.35;;;;;;;;;;4970315;28;20038;-84
2022/03/27 06:28:43;;;;;;;74.65;32.72;;;;;;;;;;4969325;28;20453;-84
2022/03/27 06:31:09;;;;;;;80.38;30.70;;;;;;;;;;4949085;28;20044;-84
2022/03/27 06:33:35;;;;;;;65.70;30.38;;;;;;;;;;4980972;28;20042;-84
2022/03/27 06:36:01;;;;;;;46.28;26.92;;;;;;;;;;4974356;28;20077;-84
2022/03/27 06:38:28;;;;;;;54.30;28.05;;;;;;;;;;4986323;28;20559;-84
2022/03/27 06:40:55;;;;;;;48.60;26.27;;;;;;;;;;4969402;28;20698;-84
2022/03/27 06:43:22;;;;;;;42.88;26.27;;;;;;;;;;4945006;28;20436;-84
2022/03/27 06:45:48;;;;;;;49.33;27.08;;;;;;;;;;4986988;28;20443;-84
2022/03/27 06:48:14;;;;;;;53.72;24.83;;;;;;;;;;4970212;28;20054;-84
2022/03/27 06:50:40;;;;;;;48.25;26.80;;;;;;;;;;4961138;28;20106;-84
2022/03/27 06:53:07;;;;;;;46.38;26.88;;;;;;;;;;4953188;28;20101;-84
2022/03/27 06:55:32;;;;;;;42.58;25.95;;;;;;;;;;4941820;28;20050;-84
2022/03/27 06:57:58;;;;;;;43.05;26.20;;;;;;;;;;4960381;28;20677;-84
2022/03/27 07:03:12;;;;;;;29.25;21.13;;;;;;;;;;4965073;28;20524;-84
2022/03/27 07:05:43;;;;;;;40.13;23.40;;;;;;;;;;4935161;28;20423;-84
2022/03/27 07:08:12;;;;;;;65.93;24.77;;;;;;;;;;4950461;28;20770;-84
2022/03/27 07:10:38;;;;;;;35.95;22.42;;;;;;;;;;4948872;28;20050;-85
2022/03/27 07:13:05;;;;;;;29.15;21.33;;;;;;;;;;4957454;28;20150;-85
2022/03/27 07:15:31;;;;;;;32.45;22.20;;;;;;;;;;4933782;28;20340;-82
2022/03/27 07:17:59;;;;;;;39.38;22.08;;;;;;;;;;4948306;28;20047;-81
2022/03/27 07:20:27;;;;;;;30.70;20.90;;;;;;;;;;4961333;28;20070;-81
2022/03/27 07:22:54;;;;;;;33.22;21.05;;;;;;;;;;4941726;28;20044;-82
2022/03/27 07:25:22;;;;;;;31.25;21.00;;;;;;;;;;4947876;28;20046;-81
2022/03/27 07:27:48;;;;;;;28.65;21.10;;;;;;;;;;4971676;28;20049;-81
2022/03/27 07:30:14;;;;;;;29.02;21.80;;;;;;;;;;4942873;29;20044;-81
2022/03/27 07:32:40;;;;;;;27.42;20.48;;;;;;;;;;4948685;28;20199;-81
2022/03/27 07:35:10;;;;;;;38.85;20.30;;;;;;;;;;4950610;28;20089;-81
2022/03/27 07:37:37;;;;;;;34.28;20.75;;;;;;;;;;4949450;28;20497;-81
2022/03/27 07:40:04;;;;;;;24.35;18.75;;;;;;;;;;4966998;28;20062;-82
2022/03/27 07:42:31;;;;;;;27.02;20.05;;;;;;;;;;4952765;28;20397;-82
2022/03/27 07:44:57;;;;;;;25.30;19.73;;;;;;;;;;4938080;28;20125;-80
2022/03/27 07:47:23;;;;;;;26.77;20.23;;;;;;;;;;4951525;28;20154;-81
2022/03/27 07:49:48;;;;;;;25.30;19.75;;;;;;;;;;4947227;28;20055;-81
2022/03/27 07:52:14;;;;;;;24.50;19.00;;;;;;;;;;4949171;28;20536;-82
2022/03/27 07:54:41;;;;;;;24.95;19.55;;;;;;;;;;4950517;28;20042;-82
2022/03/27 07:57:08;;;;;;;23.58;18.90;;;;;;;;;;4949051;28;20047;-81
2022/03/27 07:59:34;;;;;;;23.98;18.85;;;;;;;;;;4940056;28;20150;-81
2022/03/27 08:02:01;;;;;;;24.73;19.33;;;;;;;;;;4950596;28;20570;-81
2022/03/27 08:04:27;;;;;;;24.23;19.23;;;;;;;;;;4946385;28;20039;-81
2022/03/27 08:06:53;;;;;;;28.00;20.23;;;;;;;;;;4966698;28;20161;-81
2022/03/27 08:09:19;;;;;;;26.58;20.02;;;;;;;;;;4966194;28;20047;-81
2022/03/27 08:11:45;;;;;;;30.90;21.90;;;;;;;;;;4965450;28;20548;-81
2022/03/27 08:14:11;;;;;;;33.10;22.60;;;;;;;;;;4949124;28;20067;-81
2022/03/27 08:16:37;;;;;;;29.15;22.02;;;;;;;;;;4953719;28;20043;-81
2022/03/27 08:19:03;;;;;;;31.20;22.55;;;;;;;;;;4966275;28;20038;-81
2022/03/27 08:21:29;;;;;;;29.58;22.80;;;;;;;;;;4935371;28;20123;-81
2022/03/27 08:23:55;;;;;;;28.25;20.13;;;;;;;;;;4956958;28;20073;-81
2022/03/27 08:29:05;;;;;;;23.05;18.70;;;;;;;;;;4953408;28;20053;-81
2022/03/27 08:31:32;;;;;;;23.85;18.95;;;;;;;;;;4945919;28;20035;-84
2022/03/27 08:33:57;;;;;;;24.52;19.88;;;;;;;;;;4943256;28;20074;-82
2022/03/27 08:36:23;;;;;;;26.17;19.35;;;;;;;;;;4966952;28;20050;-82
2022/03/27 08:38:49;;;;;;;23.10;19.15;;;;;;;;;;4938543;28;20573;-82
2022/03/27 08:41:16;;;;;;;25.60;19.88;;;;;;;;;;4935083;28;20498;-82
2022/03/27 08:43:43;;;;;;;25.52;19.35;;;;;;;;;;4950075;28;20031;-82
2022/03/27 08:46:09;;;;;;;24.98;19.15;;;;;;;;;;4947778;28;20130;-80
2022/03/27 08:48:37;;;;;;;24.80;19.77;;;;;;;;;;4962097;28;20089;-80
2022/03/27 08:51:03;;;;;;;26.65;19.00;;;;;;;;;;4953976;28;20046;-80
2022/03/27 08:53:48;;;;;;;25.13;19.55;;;;;;;;;;4962278;28;20113;-80
2022/03/27 08:56:15;;;;;;;23.48;18.80;;;;;;;;;;4964795;28;20066;-79
2022/03/27 08:58:42;;;;;;;24.00;19.02;;;;;;;;;;4965365;28;20053;-80
2022/03/27 09:01:08;;;;;;;22.38;18.08;;;;;;;;;;4929151;28;20109;-80
2022/03/27 09:03:35;;;;;;;19.98;16.70;;;;;;;;;;4948249;28;20419;-80
2022/03/27 09:06:01;;;;;;;19.52;15.02;;;;;;;;;;4951457;28;20046;-80
2022/03/27 09:08:29;;;;;;;20.48;15.38;;;;;;;;;;4948524;28;20551;-80
2022/03/27 09:10:55;;;;;;;20.00;13.45;;;;;;;;;;4965953;28;20050;-79
2022/03/27 09:13:21;;;;;;;17.58;14.13;;;;;;;;;;4961739;28;20446;-79
2022/03/27 09:16:03;;;;;;;18.63;14.02;;;;;;;;;;4961958;28;20053;-80
2022/03/27 09:18:42;;;;;;;16.55;13.27;;;;;;;;;;4962369;28;20035;-81
2022/03/27 09:21:08;;;;;;;15.80;13.85;;;;;;;;;;4969694;28;20102;-81
2022/03/27 09:23:35;;;;;;;17.75;13.48;;;;;;;;;;4944654;28;20039;-80
2022/03/27 09:26:13;;;;;;;17.10;13.45;;;;;;;;;;4943678;28;20531;-81
2022/03/27 09:28:53;;;;;;;15.98;13.32;;;;;;;;;;4953822;28;20054;-82
2022/03/27 09:31:19;;;;;;;18.15;14.88;;;;;;;;;;4931992;28;20107;-82
2022/03/27 09:33:51;;;;;;;17.65;14.65;;;;;;;;;;4948894;28;20533;-82
2022/03/27 09:36:20;;;;;;;15.93;13.73;;;;;;;;;;4962892;28;20163;-81
2022/03/27 09:39:16;;;;;;;16.50;14.45;;;;;;;;;;4993223;28;20101;-82
2022/03/27 09:41:47;;;;;;;15.82;14.15;;;;;;;;;;4961327;28;20040;-83
2022/03/27 09:44:16;;;;;;;19.27;14.20;;;;;;;;;;4946920;28;20126;-84
2022/03/27 09:47:01;;;;;;;17.02;14.02;;;;;;;;;;4949663;28;20117;-82
2022/03/27 09:49:37;;;;;;;17.08;14.50;;;;;;;;;;4960003;28;20405;-82
2022/03/27 09:52:08;;;;;;;;;;;;;;;;;;4957809;28;20066;-82
2022/03/27 09:54:57;;;;;;;16.25;13.80;;;;;;;;;;4963732;28;19918;-82
2022/03/27 09:57:24;;;;;;;16.63;13.82;;;;;;;;;;4947812;28;20050;-83
2022/03/27 09:59:51;;;;;;;15.55;13.45;;;;;;;;;;4966991;28;20515;-82
2022/03/27 10:02:22;;;;;;;16.40;12.55;;;;;;;;;;4974223;28;20050;-81
2022/03/27 10:04:54;;;;;;;12.90;11.48;;;;;;;;;;4951239;28;20043;-81
2022/03/27 10:07:22;;;;;;;14.73;12.23;;;;;;;;;;4968161;28;20421;-82
2022/03/27 10:09:47;;;;;;;12.90;11.55;;;;;;;;;;4960811;28;20046;-82
2022/03/27 10:12:14;;;;;;;13.18;11.73;;;;;;;;;;4959506;28;20046;-82
2022/03/27 10:14:41;;;;;;;12.70;11.30;;;;;;;;;;4964822;28;20139;-82
2022/03/27 10:17:09;;;;;;;12.18;10.50;;;;;;;;;;4952803;28;20045;-81
2022/03/27 10:19:39;;;;;;;10.68;9.57;;;;;;;;;;4951287;28;20035;-82
2022/03/27 10:22:06;;;;;;;11.40;10.30;;;;;;;;;;4950322;28;20486;-79
2022/03/27 10:24:32;;;;;;;11.68;10.50;;;;;;;;;;4949248;28;20051;-79
2022/03/27 10:27:02;;;;;;;11.70;10.50;;;;;;;;;;4948322;28;20323;-79
2022/03/27 10:29:29;;;;;;;9.07;8.27;;;;;;;;;;4951168;28;20042;-79
2022/03/27 10:31:57;;;;;;;10.23;8.63;;;;;;;;;;4946845;28;20047;-79
2022/03/27 10:34:23;;;;;;;11.10;10.10;;;;;;;;;;4933311;28;20039;-79
2022/03/27 10:37:06;;;;;;;12.13;10.93;;;;;;;;;;4956548;28;20051;-78
2022/03/27 10:39:51;;;;;;;11.15;10.18;;;;;;;;;;4977835;28;20448;-78
2022/03/27 10:42:30;;;;;;;11.30;10.30;;;;;;;;;;4943329;28;20035;-79
2022/03/27 10:45:03;;;;;;;12.35;11.25;;;;;;;;;;4949036;28;20066;-79
2022/03/27 10:47:30;;;;;;;11.85;10.68;;;;;;;;;;4943087;28;20309;-79
2022/03/27 10:50:01;;;;;;;11.85;10.75;;;;;;;;;;4967858;28;20047;-80
2022/03/27 10:52:28;;;;;;;10.90;9.90;;;;;;;;;;4958326;28;20046;-79
2022/03/27 10:55:02;;;;;;;12.43;11.02;;;;;;;;;;4958501;28;20050;-79
2022/03/27 10:57:32;;;;;;;12.57;11.48;;;;;;;;;;4933810;28;20039;-79
2022/03/27 10:59:58;;;;;;;11.40;10.38;;;;;;;;;;4933609;28;20135;-79
2022/03/27 11:02:44;;;;;;;12.00;10.90;;;;;;;;;;4936412;28;20038;-79
2022/03/27 11:05:34;;;;;;;12.05;10.95;;;;;;;;;;4949270;28;20263;-80
2022/03/27 11:08:18;;;;;;;12.65;11.35;;;;;;;;;;4982352;28;20531;-81
2022/03/27 11:10:52;;;;;;;10.68;9.77;;;;;;;;;;4960904;28;20118;-80
2022/03/27 11:13:26;;;;;;;11.38;10.38;;;;;;;;;;4946393;28;20453;-81
2022/03/27 11:16:03;;;;;;;11.97;10.77;;;;;;;;;;4968280;28;20526;-80
2022/03/27 11:18:40;;;;;;;11.70;10.38;;;;;;;;;;4981700;28;20681;-80
2022/03/27 11:21:07;;;;;;;11.25;10.23;;;;;;;;;;4950753;28;20078;-79
2022/03/27 11:23:37;;;;;;;10.63;9.57;;;;;;;;;;4954560;28;20043;-80
2022/03/27 11:26:27;;;;;;;10.40;9.52;;;;;;;;;;4945998;28;20408;-78
2022/03/27 11:29:04;;;;;;;10.30;9.40;;;;;;;;;;4967656;28;20560;-80
2022/03/27 11:31:33;;;;;;;10.57;9.68;;;;;;;;;;4961063;28;20047;-80
2022/03/27 11:34:14;;;;;;;9.68;8.88;;;;;;;;;;4959014;28;20042;-80
2022/03/27 11:36:41;;;;;;;10.52;9.52;;;;;;;;;;4946432;28;20039;-80
2022/03/27 11:39:34;;;;;;;10.90;9.90;;;;;;;;;;4933070;28;20051;-81
2022/03/27 11:42:34;;;;;;;10.25;9.38;;;;;;;;;;4955806;28;20077;-80
2022/03/27 11:45:12;;;;;;;10.07;9.27;;;;;;;;;;4970645;28;20046;-80
2022/03/27 11:47:43;;;;;;;10.18;9.27;;;;;;;;;;4930744;28;20044;-80
2022/03/27 11:50:19;;;;;;;10.32;9.30;;;;;;;;;;4952881;28;20049;-80
2022/03/27 11:52:46;;;;;;;7.70;6.93;;;;;;;;;;4956608;28;20352;-80
2022/03/27 11:55:13;;;;;;;7.82;6.55;;;;;;;;;;4958688;28;20255;-79
2022/03/27 11:57:51;;;;;;;7.80;7.20;;;;;;;;;;4955838;28;20043;-81
2022/03/27 12:00:29;;;;;;;7.70;7.00;;;;;;;;;;4946150;28;20047;-79
2022/03/27 12:02:55;;;;;;;6.45;5.85;;;;;;;;;;4948424;28;20490;-80
2022/03/27 12:05:21;;;;;;;7.10;6.18;;;;;;;;;;4966826;28;20102;-80
2022/03/27 12:07:49;;;;;;;8.30;7.20;;;;;;;;;;4966981;28;20082;-81
2022/03/27 12:10:14;;;;;;;7.68;6.97;;;;;;;;;;4967140;28;20053;-81
2022/03/27 12:12:56;;;;;;;7.32;6.63;;;;;;;;;;4966539;28;20043;-80
2022/03/27 12:15:22;;;;;;;6.38;5.78;;;;;;;;;;4949409;28;20042;-80
2022/03/27 12:17:47;;;;;;;6.20;5.57;;;;;;;;;;4956405;28;20043;-80
2022/03/27 12:20:15;;;;;;;6.03;5.53;;;;;;;;;;4951120;28;20040;-80
2022/03/27 12:22:43;;;;;;;6.80;6.10;;;;;;;;;;4956832;28;20035;-80
2022/03/27 12:25:22;;;;;;;6.88;6.15;;;;;;;;;;4979675;28;20110;-79
2022/03/27 12:30:51;;;;;;;7.38;6.53;;;;;;;;;;4962648;28;20045;-79
2022/03/27 12:33:21;;;;;;;6.63;5.80;;;;;;;;;;4948090;28;20038;-79
2022/03/27 12:35:47;;;;;;;5.32;4.82;;;;;;;;;;4949338;28;20047;-78
2022/03/27 12:38:14;;;;;;;6.10;5.50;;;;;;;;;;4962790;28;20247;-79
2022/03/27 12:40:44;;;;;;;7.53;6.72;;;;;;;;;;4951165;28;20035;-78
2022/03/27 12:43:14;;;;;;;8.40;6.82;;;;;;;;;;4943929;28;20082;-78
2022/03/27 12:45:41;;;;;;;6.88;6.20;;;;;;;;;;4944461;28;20042;-78
2022/03/27 12:48:23;;;;;;;5.50;5.00;;;;;;;;;;4939072;28;20047;-77
2022/03/27 12:50:53;;;;;;;6.35;5.65;;;;;;;;;;4940091;28;20066;-78
2022/03/27 12:53:29;;;;;;;6.82;6.22;;;;;;;;;;5087077;27;20897;-80
2022/03/27 12:56:18;;;;;;;6.57;5.97;;;;;;;;;;5071915;28;20045;-80
2022/03/27 12:58:43;;;;;;;6.45;5.93;;;;;;;;;;5075629;28;20072;-80
2022/03/27 13:01:20;;;;;;;7.18;6.47;;;;;;;;;;5064383;28;20044;-80
2022/03/27 13:04:00;;;;;;;6.47;5.85;;;;;;;;;;5077155;28;20040;-81
2022/03/27 13:06:58;;;;;;;6.28;5.75;;;;;;;;;;5059857;28;20489;-81
2022/03/27 13:09:25;;;;;;;6.20;5.60;;;;;;;;;;5056895;28;20033;-80
2022/03/27 13:11:50;;;;;;;6.63;6.07;;;;;;;;;;5041663;28;20153;-78
2022/03/27 13:14:16;;;;;;;6.65;6.05;;;;;;;;;;5031714;28;20041;-78
2022/03/27 13:16:45;;;;;;;6.55;6.00;;;;;;;;;;5052168;28;20075;-78
2022/03/27 13:19:13;;;;;;;7.35;6.75;;;;;;;;;;5050326;28;20040;-78
2022/03/27 13:21:56;;;;;;;7.88;6.72;;;;;;;;;;5045722;28;20033;-78
2022/03/27 13:24:27;;;;;;;6.38;5.78;;;;;;;;;;5053456;28;20047;-79
2022/03/27 13:26:59;;;;;;;6.47;5.88;;;;;;;;;;5057055;28;20067;-79
2022/03/27 13:29:25;;;;;;;7.45;6.63;;;;;;;;;;5029122;28;20043;-78
2022/03/27 13:31:52;;;;;;;7.47;6.90;;;;;;;;;;5047349;28;20497;-78
2022/03/27 13:34:18;;;;;;;7.07;6.47;;;;;;;;;;5045093;28;20088;-78
2022/03/27 13:36:46;;;;;;;6.22;5.63;;;;;;;;;;5044712;28;20378;-78
2022/03/27 13:39:12;;;;;;;7.43;6.10;;;;;;;;;;5041081;28;20340;-79
2022/03/27 13:44:25;;;;;;;5.90;5.35;;;;;;;;;;5063999;28;20044;-79
2022/03/27 13:46:52;;;;;;;6.65;6.05;;;;;;;;;;5052756;28;20297;-78
2022/03/27 13:49:18;;;;;;;6.32;5.82;;;;;;;;;;5052998;28;21328;-79
2022/03/27 13:51:45;;;;;;;5.88;5.38;;;;;;;;;;5028485;28;20033;-79
2022/03/27 13:54:11;;;;;;;5.80;5.30;;;;;;;;;;5031005;28;20043;-78
2022/03/27 13:56:39;;;;;;;6.30;5.70;;;;;;;;;;5047124;28;20036;-77
2022/03/27 13:59:05;;;;;;;5.60;4.90;;;;;;;;;;5048805;28;20033;-79
2022/03/27 14:01:35;;;;;;;5.60;5.07;;;;;;;;;;5022200;28;20044;-78
2022/03/27 14:04:01;;;;;;;5.70;5.20;;;;;;;;;;5039174;28;20052;-79
2022/03/27 14:06:27;;;;;;;6.53;5.93;;;;;;;;;;5034057;28;20128;-79
2022/03/27 14:08:52;;;;;;;5.97;5.47;;;;;;;;;;5040020;28;20044;-78
2022/03/27 14:11:18;;;;;;;7.25;6.65;;;;;;;;;;5019334;28;20226;-79
2022/03/27 14:13:44;;;;;;;6.25;5.75;;;;;;;;;;5017627;28;20069;-78
2022/03/27 14:16:09;;;;;;;6.43;5.88;;;;;;;;;;5043576;28;20033;-77
2022/03/27 14:18:36;;;;;;;7.03;6.00;;;;;;;;;;5049145;28;20036;-78
2022/03/27 14:21:02;;;;;;;5.47;4.97;;;;;;;;;;5017823;28;20056;-77
2022/03/27 14:23:28;;;;;;;5.88;5.30;;;;;;;;;;5037309;28;20049;-78
2022/03/27 14:25:53;;;;;;;5.38;4.88;;;;;;;;;;5033486;28;20061;-78
2022/03/27 14:28:19;;;;;;;5.18;4.78;;;;;;;;;;5028258;28;20395;-78
2022/03/27 14:30:45;;;;;;;6.75;4.90;;;;;;;;;;5021826;28;20040;-77
2022/03/27 14:33:11;;;;;;;4.53;4.22;;;;;;;;;;5015643;28;20053;-78
2022/03/27 14:35:37;;;;;;;4.25;3.92;;;;;;;;;;5030899;28;20114;-79
2022/03/27 14:38:04;;;;;;;3.88;3.63;;;;;;;;;;5050093;28;20037;-78
2022/03/27 14:40:29;;;;;;;4.43;3.95;;;;;;;;;;5042159;28;20214;-77
2022/03/27 14:42:55;;;;;;;4.85;4.45;;;;;;;;;;5043482;28;20144;-77